sensor_id;sensor_type;location;lat;lon;timestamp;pressure;altitude;pressure_sealevel;temperature;humidity
72855;BME280;60991;51.278;22.550;2024-03-25T00:00:48;97820.97;;;3.86;76.18
72855;BME280;60991;51.278;22.550;2024-03-25T00:02:18;97820.75;;;3.88;75.42
72855;BME280;60991;51.278;22.550;2024-03-25T00:03:48;97816.41;;;3.81;75.55
72855;BME280;60991;51.278;22.550;2024-03-25T00:05:18;97815.50;;;3.88;75.89
72855;BME280;60991;51.278;22.550;2024-03-25T00:06:49;97814.47;;;3.89;75.43
72855;BME280;60991;51.278;22.550;2024-03-25T00:08:19;97817.63;;;3.91;75.56
72855;BME280;60991;51.278;22.550;2024-03-25T00:09:49;97812.94;;;3.93;75.40
72855;BME280;60991;51.278;22.550;2024-03-25T00:11:20;97820.03;;;3.92;75.56
72855;BME280;60991;51.278;22.550;2024-03-25T00:12:50;97815.56;;;3.93;74.86
72855;BME280;60991;51.278;22.550;2024-03-25T00:14:21;97818.53;;;3.96;75.22
72855;BME280;60991;51.278;22.550;2024-03-25T00:15:51;97813.97;;;4.03;74.73
72855;BME280;60991;51.278;22.550;2024-03-25T00:17:21;97815.16;;;4.12;74.83
72855;BME280;60991;51.278;22.550;2024-03-25T00:18:51;97815.50;;;4.16;74.76
72855;BME280;60991;51.278;22.550;2024-03-25T00:20:21;97818.34;;;4.14;74.41
72855;BME280;60991;51.278;22.550;2024-03-25T00:21:52;97812.19;;;4.21;74.37
72855;BME280;60991;51.278;22.550;2024-03-25T00:23:22;97812.22;;;4.37;73.61
72855;BME280;60991;51.278;22.550;2024-03-25T00:24:52;97806.81;;;4.44;73.69
72855;BME280;60991;51.278;22.550;2024-03-25T00:26:23;97814.22;;;4.47;73.33
72855;BME280;60991;51.278;22.550;2024-03-25T00:27:53;97808.41;;;4.45;73.37
72855;BME280;60991;51.278;22.550;2024-03-25T00:29:23;97804.91;;;4.39;73.23
72855;BME280;60991;51.278;22.550;2024-03-25T00:30:54;97803.06;;;4.40;73.09
72855;BME280;60991;51.278;22.550;2024-03-25T00:32:24;97795.34;;;4.50;72.70
72855;BME280;60991;51.278;22.550;2024-03-25T00:33:54;97796.84;;;4.46;72.58
72855;BME280;60991;51.278;22.550;2024-03-25T00:35:24;97790.72;;;4.40;72.82
72855;BME280;60991;51.278;22.550;2024-03-25T00:36:55;97799.44;;;4.29;73.04
72855;BME280;60991;51.278;22.550;2024-03-25T00:38:25;97786.97;;;4.36;72.94
72855;BME280;60991;51.278;22.550;2024-03-25T00:39:55;97795.97;;;4.24;73.41
72855;BME280;60991;51.278;22.550;2024-03-25T00:41:25;97789.47;;;4.14;73.56
72855;BME280;60991;51.278;22.550;2024-03-25T00:42:55;97792.91;;;4.15;73.74
72855;BME280;60991;51.278;22.550;2024-03-25T00:44:26;97792.00;;;4.09;73.82
72855;BME280;60991;51.278;22.550;2024-03-25T00:45:56;97791.75;;;4.11;73.65
72855;BME280;60991;51.278;22.550;2024-03-25T00:47:26;97790.09;;;4.05;74.05
72855;BME280;60991;51.278;22.550;2024-03-25T00:48:56;97795.06;;;3.90;74.43
72855;BME280;60991;51.278;22.550;2024-03-25T00:50:26;97797.13;;;3.88;74.82
72855;BME280;60991;51.278;22.550;2024-03-25T00:51:57;97793.53;;;3.94;74.50
72855;BME280;60991;51.278;22.550;2024-03-25T00:53:27;97793.41;;;4.00;74.18
72855;BME280;60991;51.278;22.550;2024-03-25T00:54:57;97784.97;;;3.98;74.28
72855;BME280;60991;51.278;22.550;2024-03-25T00:56:27;97789.81;;;3.90;74.25
72855;BME280;60991;51.278;22.550;2024-03-25T00:57:58;97795.19;;;3.83;74.86
72855;BME280;60991;51.278;22.550;2024-03-25T00:59:28;97788.13;;;3.72;74.80
72855;BME280;60991;51.278;22.550;2024-03-25T01:00:58;97795.53;;;3.75;75.27
72855;BME280;60991;51.278;22.550;2024-03-25T01:02:28;97788.00;;;3.78;75.25
72855;BME280;60991;51.278;22.550;2024-03-25T01:03:58;97790.28;;;3.75;75.21
72855;BME280;60991;51.278;22.550;2024-03-25T01:05:29;97789.41;;;3.69;75.63
72855;BME280;60991;51.278;22.550;2024-03-25T01:06:59;97789.97;;;3.71;75.28
72855;BME280;60991;51.278;22.550;2024-03-25T01:08:29;97782.81;;;3.67;75.36
72855;BME280;60991;51.278;22.550;2024-03-25T01:09:59;97781.84;;;3.73;75.55
72855;BME280;60991;51.278;22.550;2024-03-25T01:11:30;97781.63;;;3.74;75.14
72855;BME280;60991;51.278;22.550;2024-03-25T01:13:00;97783.56;;;3.79;75.60
72855;BME280;60991;51.278;22.550;2024-03-25T01:14:30;97785.38;;;3.78;75.20
72855;BME280;60991;51.278;22.550;2024-03-25T01:16:01;97780.00;;;3.85;75.18
72855;BME280;60991;51.278;22.550;2024-03-25T01:17:31;97787.09;;;3.85;74.93
72855;BME280;60991;51.278;22.550;2024-03-25T01:19:01;97785.66;;;4.05;74.71
72855;BME280;60991;51.278;22.550;2024-03-25T01:20:31;97777.38;;;4.13;74.19
72855;BME280;60991;51.278;22.550;2024-03-25T01:22:01;97785.22;;;4.25;73.81
72855;BME280;60991;51.278;22.550;2024-03-25T01:23:32;97781.72;;;4.36;73.57
72855;BME280;60991;51.278;22.550;2024-03-25T01:25:02;97782.53;;;4.37;73.48
72855;BME280;60991;51.278;22.550;2024-03-25T01:26:32;97781.41;;;4.33;73.57
72855;BME280;60991;51.278;22.550;2024-03-25T01:28:02;97782.66;;;4.30;73.02
72855;BME280;60991;51.278;22.550;2024-03-25T01:29:33;97780.25;;;4.29;73.22
72855;BME280;60991;51.278;22.550;2024-03-25T01:31:03;97774.31;;;4.33;73.04
72855;BME280;60991;51.278;22.550;2024-03-25T01:32:33;97777.38;;;4.42;72.99
72855;BME280;60991;51.278;22.550;2024-03-25T01:34:04;97775.50;;;4.26;73.12
72855;BME280;60991;51.278;22.550;2024-03-25T01:35:34;97779.06;;;4.20;73.49
72855;BME280;60991;51.278;22.550;2024-03-25T01:37:04;97781.06;;;4.29;72.90
72855;BME280;60991;51.278;22.550;2024-03-25T01:38:34;97777.97;;;4.32;73.01
72855;BME280;60991;51.278;22.550;2024-03-25T01:40:05;97779.44;;;4.40;72.75
72855;BME280;60991;51.278;22.550;2024-03-25T01:41:36;97785.81;;;4.44;72.42
72855;BME280;60991;51.278;22.550;2024-03-25T01:43:06;97781.72;;;4.36;72.65
72855;BME280;60991;51.278;22.550;2024-03-25T01:44:36;97780.69;;;4.37;72.75
72855;BME280;60991;51.278;22.550;2024-03-25T01:46:07;97781.72;;;4.36;72.44
72855;BME280;60991;51.278;22.550;2024-03-25T01:47:38;97787.13;;;4.30;72.94
72855;BME280;60991;51.278;22.550;2024-03-25T01:49:08;97785.06;;;4.32;72.91
72855;BME280;60991;51.278;22.550;2024-03-25T01:50:42;97779.47;;;4.28;72.82
72855;BME280;60991;51.278;22.550;2024-03-25T01:52:13;97777.72;;;4.17;72.89
72855;BME280;60991;51.278;22.550;2024-03-25T01:53:44;97773.16;;;4.12;73.14
72855;BME280;60991;51.278;22.550;2024-03-25T01:55:21;97777.38;;;4.13;73.26
72855;BME280;60991;51.278;22.550;2024-03-25T01:56:52;97780.22;;;4.12;73.55
72855;BME280;60991;51.278;22.550;2024-03-25T01:58:23;97773.63;;;4.09;73.58
72855;BME280;60991;51.278;22.550;2024-03-25T01:59:53;97768.63;;;4.08;73.93
72855;BME280;60991;51.278;22.550;2024-03-25T02:01:24;97774.41;;;4.10;73.29
72855;BME280;60991;51.278;22.550;2024-03-25T02:02:55;97780.81;;;4.14;73.18
72855;BME280;60991;51.278;22.550;2024-03-25T02:04:25;97769.16;;;4.10;73.70
72855;BME280;60991;51.278;22.550;2024-03-25T02:06:01;97776.44;;;4.20;73.38
72855;BME280;60991;51.278;22.550;2024-03-25T02:07:34;97782.34;;;4.27;72.70
72855;BME280;60991;51.278;22.550;2024-03-25T02:09:05;97771.19;;;4.20;72.96
72855;BME280;60991;51.278;22.550;2024-03-25T02:10:37;97767.94;;;4.29;73.19
72855;BME280;60991;51.278;22.550;2024-03-25T02:12:08;97777.94;;;4.15;73.51
72855;BME280;60991;51.278;22.550;2024-03-25T02:13:39;97780.47;;;4.10;73.63
72855;BME280;60991;51.278;22.550;2024-03-25T02:15:10;97772.66;;;3.99;73.62
72855;BME280;60991;51.278;22.550;2024-03-25T02:16:41;97785.44;;;3.95;73.53
72855;BME280;60991;51.278;22.550;2024-03-25T02:18:11;97778.00;;;4.04;74.07
72855;BME280;60991;51.278;22.550;2024-03-25T02:19:41;97778.75;;;4.16;73.57
72855;BME280;60991;51.278;22.550;2024-03-25T02:21:11;97779.31;;;4.18;73.47
72855;BME280;60991;51.278;22.550;2024-03-25T02:22:42;97778.03;;;4.21;73.26
72855;BME280;60991;51.278;22.550;2024-03-25T02:24:13;97777.47;;;4.18;73.34
72855;BME280;60991;51.278;22.550;2024-03-25T02:25:54;97780.34;;;4.17;72.97
72855;BME280;60991;51.278;22.550;2024-03-25T02:27:26;97779.06;;;4.20;73.12
72855;BME280;60991;51.278;22.550;2024-03-25T02:28:56;97777.41;;;4.30;72.41
72855;BME280;60991;51.278;22.550;2024-03-25T02:30:26;97784.81;;;4.33;72.48
72855;BME280;60991;51.278;22.550;2024-03-25T02:31:57;97780.94;;;4.36;72.45
72855;BME280;60991;51.278;22.550;2024-03-25T02:33:27;97776.59;;;4.30;72.57
72855;BME280;60991;51.278;22.550;2024-03-25T02:34:57;97778.78;;;4.33;72.51
72855;BME280;60991;51.278;22.550;2024-03-25T02:36:28;97774.31;;;4.33;72.75
72855;BME280;60991;51.278;22.550;2024-03-25T02:37:58;97776.94;;;4.33;72.39
72855;BME280;60991;51.278;22.550;2024-03-25T02:39:28;97774.88;;;4.35;72.62
72855;BME280;60991;51.278;22.550;2024-03-25T02:40:58;97776.53;;;4.25;72.81
72855;BME280;60991;51.278;22.550;2024-03-25T02:42:29;97778.16;;;4.14;72.81
72855;BME280;60991;51.278;22.550;2024-03-25T02:43:59;97771.31;;;4.13;73.30
72855;BME280;60991;51.278;22.550;2024-03-25T02:45:29;97771.44;;;4.18;73.18
72855;BME280;60991;51.278;22.550;2024-03-25T02:47:00;97766.09;;;4.30;73.16
72855;BME280;60991;51.278;22.550;2024-03-25T02:48:31;97767.09;;;4.40;72.26
72855;BME280;60991;51.278;22.550;2024-03-25T02:50:01;97769.94;;;4.39;72.81
72855;BME280;60991;51.278;22.550;2024-03-25T02:51:31;97769.47;;;4.42;72.49
72855;BME280;60991;51.278;22.550;2024-03-25T02:53:02;97765.88;;;4.48;72.23
72855;BME280;60991;51.278;22.550;2024-03-25T02:54:33;97772.50;;;4.50;72.25
72855;BME280;60991;51.278;22.550;2024-03-25T02:56:04;97776.16;;;4.49;72.30
72855;BME280;60991;51.278;22.550;2024-03-25T02:57:34;97780.56;;;4.44;72.21
72855;BME280;60991;51.278;22.550;2024-03-25T02:59:04;97782.75;;;4.35;72.48
72855;BME280;60991;51.278;22.550;2024-03-25T03:00:34;97784.31;;;4.20;72.51
72855;BME280;60991;51.278;22.550;2024-03-25T03:02:05;97778.94;;;4.26;72.96
72855;BME280;60991;51.278;22.550;2024-03-25T03:03:35;97777.59;;;4.12;73.00
72855;BME280;60991;51.278;22.550;2024-03-25T03:05:05;97774.06;;;4.18;73.37
72855;BME280;60991;51.278;22.550;2024-03-25T03:06:35;97774.75;;;4.13;73.48
72855;BME280;60991;51.278;22.550;2024-03-25T03:08:06;97779.75;;;4.15;73.37
72855;BME280;60991;51.278;22.550;2024-03-25T03:09:36;97778.94;;;4.26;73.14
72855;BME280;60991;51.278;22.550;2024-03-25T03:11:06;97786.50;;;4.39;72.47
72855;BME280;60991;51.278;22.550;2024-03-25T03:12:36;97785.84;;;4.32;72.48
72855;BME280;60991;51.278;22.550;2024-03-25T03:14:07;97786.00;;;4.26;73.10
72855;BME280;60991;51.278;22.550;2024-03-25T03:15:37;97792.91;;;4.15;73.20
72855;BME280;60991;51.278;22.550;2024-03-25T03:17:07;97789.06;;;4.06;73.63
72855;BME280;60991;51.278;22.550;2024-03-25T03:18:39;97793.88;;;3.97;73.95
72855;BME280;60991;51.278;22.550;2024-03-25T03:20:10;97785.22;;;3.97;73.98
72855;BME280;60991;51.278;22.550;2024-03-25T03:21:40;97799.59;;;3.94;73.83
72855;BME280;60991;51.278;22.550;2024-03-25T03:23:10;97787.72;;;3.92;74.24
72855;BME280;60991;51.278;22.550;2024-03-25T03:24:40;97791.16;;;3.92;73.99
72855;BME280;60991;51.278;22.550;2024-03-25T03:26:11;97798.22;;;4.03;73.91
72855;BME280;60991;51.278;22.550;2024-03-25T03:27:41;97797.44;;;3.91;74.64
72855;BME280;60991;51.278;22.550;2024-03-25T03:29:11;97798.03;;;3.81;74.67
72855;BME280;60991;51.278;22.550;2024-03-25T03:30:41;97797.13;;;3.76;74.98
72855;BME280;60991;51.278;22.550;2024-03-25T03:32:11;97794.44;;;3.71;75.24
72855;BME280;60991;51.278;22.550;2024-03-25T03:33:42;97795.34;;;3.65;75.38
72855;BME280;60991;51.278;22.550;2024-03-25T03:35:12;97783.59;;;3.56;75.23
72855;BME280;60991;51.278;22.550;2024-03-25T03:36:42;97792.19;;;3.51;75.72
72855;BME280;60991;51.278;22.550;2024-03-25T03:38:12;97789.09;;;3.54;76.10
72855;BME280;60991;51.278;22.550;2024-03-25T03:39:43;97784.06;;;3.53;75.69
72855;BME280;60991;51.278;22.550;2024-03-25T03:41:13;97792.50;;;3.55;76.40
72855;BME280;60991;51.278;22.550;2024-03-25T03:42:43;97789.66;;;3.56;76.20
72855;BME280;60991;51.278;22.550;2024-03-25T03:44:13;97800.09;;;3.79;75.01
72855;BME280;60991;51.278;22.550;2024-03-25T03:45:43;97806.25;;;3.85;75.01
72855;BME280;60991;51.278;22.550;2024-03-25T03:47:14;97812.53;;;3.84;75.35
72855;BME280;60991;51.278;22.550;2024-03-25T03:48:44;97802.63;;;3.74;75.03
72855;BME280;60991;51.278;22.550;2024-03-25T03:50:14;97802.63;;;3.74;75.11
72855;BME280;60991;51.278;22.550;2024-03-25T03:51:44;97805.97;;;3.70;75.05
72855;BME280;60991;51.278;22.550;2024-03-25T03:53:14;97808.81;;;3.68;75.95
72855;BME280;60991;51.278;22.550;2024-03-25T03:54:45;97804.66;;;3.72;75.17
72855;BME280;60991;51.278;22.550;2024-03-25T03:56:15;97807.41;;;3.77;75.11
72855;BME280;60991;51.278;22.550;2024-03-25T03:57:45;97805.47;;;3.73;75.44
72855;BME280;60991;51.278;22.550;2024-03-25T03:59:15;97808.19;;;3.78;75.21
72855;BME280;60991;51.278;22.550;2024-03-25T04:00:45;97807.78;;;3.69;75.16
72855;BME280;60991;51.278;22.550;2024-03-25T04:02:16;97802.44;;;3.64;75.65
72855;BME280;60991;51.278;22.550;2024-03-25T04:03:46;97807.69;;;3.64;75.89
72855;BME280;60991;51.278;22.550;2024-03-25T04:05:16;97812.00;;;3.59;75.48
72855;BME280;60991;51.278;22.550;2024-03-25T04:06:46;97812.56;;;3.61;75.84
72855;BME280;60991;51.278;22.550;2024-03-25T04:08:17;97803.91;;;3.60;76.19
72855;BME280;60991;51.278;22.550;2024-03-25T04:09:47;97809.03;;;3.55;75.64
72855;BME280;60991;51.278;22.550;2024-03-25T04:11:17;97806.19;;;3.57;75.94
72855;BME280;60991;51.278;22.550;2024-03-25T04:12:47;97803.78;;;3.67;75.54
72855;BME280;60991;51.278;22.550;2024-03-25T04:14:17;97810.28;;;3.64;75.62
72855;BME280;60991;51.278;22.550;2024-03-25T04:15:48;97807.22;;;3.67;75.45
72855;BME280;60991;51.278;22.550;2024-03-25T04:17:18;97799.69;;;3.59;76.06
72855;BME280;60991;51.278;22.550;2024-03-25T04:18:48;97806.19;;;3.57;76.05
72855;BME280;60991;51.278;22.550;2024-03-25T04:20:19;97802.53;;;3.58;75.72
72855;BME280;60991;51.278;22.550;2024-03-25T04:21:49;97797.19;;;3.53;76.33
72855;BME280;60991;51.278;22.550;2024-03-25T04:23:19;97796.16;;;3.54;75.79
72855;BME280;60991;51.278;22.550;2024-03-25T04:24:49;97805.41;;;3.44;76.47
72855;BME280;60991;51.278;22.550;2024-03-25T04:26:20;97801.44;;;3.42;76.34
72855;BME280;60991;51.278;22.550;2024-03-25T04:27:50;97796.63;;;3.39;76.41
72855;BME280;60991;51.278;22.550;2024-03-25T04:29:20;97802.56;;;3.34;76.59
72855;BME280;60991;51.278;22.550;2024-03-25T04:30:51;97801.19;;;3.43;76.37
72855;BME280;60991;51.278;22.550;2024-03-25T04:32:22;97806.56;;;3.48;76.52
72855;BME280;60991;51.278;22.550;2024-03-25T04:33:52;97803.38;;;3.46;76.45
72855;BME280;60991;51.278;22.550;2024-03-25T04:35:22;97788.53;;;3.40;76.37
72855;BME280;60991;51.278;22.550;2024-03-25T04:36:53;97796.88;;;3.37;76.70
72855;BME280;60991;51.278;22.550;2024-03-25T04:38:23;97802.34;;;3.36;76.74
72855;BME280;60991;51.278;22.550;2024-03-25T04:39:54;97800.28;;;3.38;76.61
72855;BME280;60991;51.278;22.550;2024-03-25T04:41:24;97803.94;;;3.48;76.30
72855;BME280;60991;51.278;22.550;2024-03-25T04:42:54;97803.00;;;3.55;76.08
72855;BME280;60991;51.278;22.550;2024-03-25T04:44:24;97800.94;;;3.57;76.18
72855;BME280;60991;51.278;22.550;2024-03-25T04:45:54;97797.63;;;3.61;75.91
72855;BME280;60991;51.278;22.550;2024-03-25T04:47:25;97801.84;;;3.62;75.29
72855;BME280;60991;51.278;22.550;2024-03-25T04:48:55;97803.44;;;3.63;75.76
72855;BME280;60991;51.278;22.550;2024-03-25T04:50:26;97811.22;;;3.70;75.64
72855;BME280;60991;51.278;22.550;2024-03-25T04:51:56;97806.06;;;3.63;75.56
72855;BME280;60991;51.278;22.550;2024-03-25T04:53:26;97807.00;;;3.57;75.75
72855;BME280;60991;51.278;22.550;2024-03-25T04:54:56;97814.41;;;3.60;75.59
72855;BME280;60991;51.278;22.550;2024-03-25T04:56:27;97809.03;;;3.55;75.77
72855;BME280;60991;51.278;22.550;2024-03-25T04:57:57;97810.03;;;3.77;74.98
72855;BME280;60991;51.278;22.550;2024-03-25T04:59:27;97815.50;;;3.76;74.93
72855;BME280;60991;51.278;22.550;2024-03-25T05:00:57;97814.47;;;3.77;74.96
72855;BME280;60991;51.278;22.550;2024-03-25T05:02:28;97810.88;;;3.95;74.61
72855;BME280;60991;51.278;22.550;2024-03-25T05:03:58;97811.03;;;3.88;74.13
72855;BME280;60991;51.278;22.550;2024-03-25T05:05:28;97814.81;;;3.80;74.89
72855;BME280;60991;51.278;22.550;2024-03-25T05:06:58;97812.31;;;3.74;74.64
72855;BME280;60991;51.278;22.550;2024-03-25T05:08:28;97813.13;;;3.74;74.89
72855;BME280;60991;51.278;22.550;2024-03-25T05:09:59;97813.56;;;3.83;74.40
72855;BME280;60991;51.278;22.550;2024-03-25T05:11:29;97810.41;;;3.69;74.66
72855;BME280;60991;51.278;22.550;2024-03-25T05:12:59;97810.81;;;3.78;74.90
72855;BME280;60991;51.278;22.550;2024-03-25T05:14:29;97813.09;;;3.86;74.43
72855;BME280;60991;51.278;22.550;2024-03-25T05:16:00;97816.84;;;3.90;74.19
72855;BME280;60991;51.278;22.550;2024-03-25T05:17:30;97816.72;;;3.97;74.17
72855;BME280;60991;51.278;22.550;2024-03-25T05:19:00;97816.81;;;4.02;73.92
72855;BME280;60991;51.278;22.550;2024-03-25T05:20:30;97815.69;;;3.98;74.03
72855;BME280;60991;51.278;22.550;2024-03-25T05:22:00;97814.69;;;3.87;74.30
72855;BME280;60991;51.278;22.550;2024-03-25T05:23:31;97813.63;;;4.00;73.94
72855;BME280;60991;51.278;22.550;2024-03-25T05:25:01;97814.03;;;4.08;73.52
72855;BME280;60991;51.278;22.550;2024-03-25T05:26:31;97819.63;;;4.12;73.94
72855;BME280;60991;51.278;22.550;2024-03-25T05:28:01;97809.78;;;4.19;73.56
72855;BME280;60991;51.278;22.550;2024-03-25T05:29:31;97820.34;;;4.07;74.02
72855;BME280;60991;51.278;22.550;2024-03-25T05:31:06;97818.75;;;4.06;74.13
72855;BME280;60991;51.278;22.550;2024-03-25T05:32:36;97814.94;;;4.14;74.18
72855;BME280;60991;51.278;22.550;2024-03-25T05:34:06;97812.41;;;4.19;74.05
72855;BME280;60991;51.278;22.550;2024-03-25T05:35:36;97809.69;;;4.42;73.68
72855;BME280;60991;51.278;22.550;2024-03-25T05:37:06;97815.34;;;4.51;73.35
72855;BME280;60991;51.278;22.550;2024-03-25T05:38:37;97815.25;;;4.46;73.75
72855;BME280;60991;51.278;22.550;2024-03-25T05:40:07;97810.75;;;4.58;72.77
72855;BME280;60991;51.278;22.550;2024-03-25T05:41:38;97814.50;;;4.79;72.72
72855;BME280;60991;51.278;22.550;2024-03-25T05:43:08;97813.06;;;4.88;72.24
72855;BME280;60991;51.278;22.550;2024-03-25T05:44:38;97824.47;;;4.77;71.93
72855;BME280;60991;51.278;22.550;2024-03-25T05:46:08;97821.91;;;4.82;71.85
72855;BME280;60991;51.278;22.550;2024-03-25T05:47:39;97828.28;;;4.86;71.63
72855;BME280;60991;51.278;22.550;2024-03-25T05:49:09;97822.44;;;4.67;72.11
72855;BME280;60991;51.278;22.550;2024-03-25T05:50:39;97830.63;;;4.54;72.26
72855;BME280;60991;51.278;22.550;2024-03-25T05:52:09;97830.69;;;4.42;72.40
72855;BME280;60991;51.278;22.550;2024-03-25T05:53:39;97823.53;;;4.38;72.90
72855;BME280;60991;51.278;22.550;2024-03-25T05:55:10;97821.59;;;4.33;73.04
72855;BME280;60991;51.278;22.550;2024-03-25T05:56:40;97824.44;;;4.32;72.95
72855;BME280;60991;51.278;22.550;2024-03-25T05:58:10;97840.13;;;4.27;73.07
72855;BME280;60991;51.278;22.550;2024-03-25T05:59:40;97836.38;;;4.23;73.08
72855;BME280;60991;51.278;22.550;2024-03-25T06:01:11;97841.28;;;4.19;73.46
72855;BME280;60991;51.278;22.550;2024-03-25T06:02:41;97837.53;;;4.15;73.70
72855;BME280;60991;51.278;22.550;2024-03-25T06:04:11;97838.56;;;4.14;73.58
72855;BME280;60991;51.278;22.550;2024-03-25T06:05:41;97839.81;;;4.11;73.61
72855;BME280;60991;51.278;22.550;2024-03-25T06:07:11;97843.72;;;4.09;73.46
72855;BME280;60991;51.278;22.550;2024-03-25T06:08:42;97831.88;;;4.06;73.92
72855;BME280;60991;51.278;22.550;2024-03-25T06:10:12;97842.69;;;4.10;73.87
72855;BME280;60991;51.278;22.550;2024-03-25T06:11:42;97838.00;;;4.12;74.07
72855;BME280;60991;51.278;22.550;2024-03-25T06:13:12;97837.31;;;4.16;73.90
72855;BME280;60991;51.278;22.550;2024-03-25T06:14:43;97838.09;;;4.17;74.25
72855;BME280;60991;51.278;22.550;2024-03-25T06:16:14;97834.22;;;4.20;73.65
72855;BME280;60991;51.278;22.550;2024-03-25T06:17:44;97840.13;;;4.27;74.11
72855;BME280;60991;51.278;22.550;2024-03-25T06:19:14;97828.69;;;4.33;73.96
72855;BME280;60991;51.278;22.550;2024-03-25T06:20:44;97829.09;;;4.41;73.53
72855;BME280;60991;51.278;22.550;2024-03-25T06:22:15;97837.47;;;4.38;73.16
72855;BME280;60991;51.278;22.550;2024-03-25T06:23:45;97834.03;;;4.38;73.38
72855;BME280;60991;51.278;22.550;2024-03-25T06:25:18;97838.38;;;4.32;72.79
72855;BME280;60991;51.278;22.550;2024-03-25T06:26:48;97832.00;;;4.28;72.61
72855;BME280;60991;51.278;22.550;2024-03-25T06:28:19;97839.09;;;4.28;72.73
72855;BME280;60991;51.278;22.550;2024-03-25T06:29:49;97836.44;;;4.28;73.32
72855;BME280;60991;51.278;22.550;2024-03-25T06:31:19;97830.41;;;4.27;73.00
72855;BME280;60991;51.278;22.550;2024-03-25T06:32:50;97834.50;;;4.35;72.95
72855;BME280;60991;51.278;22.550;2024-03-25T06:34:20;97835.47;;;4.45;73.56
72855;BME280;60991;51.278;22.550;2024-03-25T06:35:50;97833.97;;;4.49;72.98
72855;BME280;60991;51.278;22.550;2024-03-25T06:37:20;97835.56;;;4.50;72.58
72855;BME280;60991;51.278;22.550;2024-03-25T06:38:50;97829.47;;;4.62;72.02
72855;BME280;60991;51.278;22.550;2024-03-25T06:40:21;97841.88;;;4.66;72.17
72855;BME280;60991;51.278;22.550;2024-03-25T06:41:51;97841.03;;;4.77;71.93
72855;BME280;60991;51.278;22.550;2024-03-25T06:43:21;97841.66;;;4.84;71.97
72855;BME280;60991;51.278;22.550;2024-03-25T06:44:51;97838.31;;;4.89;71.44
72855;BME280;60991;51.278;22.550;2024-03-25T06:46:21;97835.13;;;4.87;71.55
72855;BME280;60991;51.278;22.550;2024-03-25T06:47:52;97832.50;;;5.04;71.71
72855;BME280;60991;51.278;22.550;2024-03-25T06:49:22;97838.06;;;5.24;71.27
72855;BME280;60991;51.278;22.550;2024-03-25T06:50:56;97833.28;;;5.38;70.64
72855;BME280;60991;51.278;22.550;2024-03-25T06:52:26;97834.94;;;5.44;70.24
72855;BME280;60991;51.278;22.550;2024-03-25T06:53:56;97836.59;;;5.50;70.26
72855;BME280;60991;51.278;22.550;2024-03-25T06:55:27;97842.09;;;5.48;70.48
72855;BME280;60991;51.278;22.550;2024-03-25T06:56:57;97833.34;;;5.43;69.71
72855;BME280;60991;51.278;22.550;2024-03-25T06:58:28;97834.94;;;5.44;69.51
72855;BME280;60991;51.278;22.550;2024-03-25T06:59:58;97839.31;;;5.38;69.72
72855;BME280;60991;51.278;22.550;2024-03-25T07:01:28;97840.84;;;5.34;69.80
72855;BME280;60991;51.278;22.550;2024-03-25T07:02:58;97839.50;;;5.32;69.85
72855;BME280;60991;51.278;22.550;2024-03-25T07:04:28;97849.22;;;5.31;69.89
72855;BME280;60991;51.278;22.550;2024-03-25T07:05:59;97846.28;;;5.28;69.82
72855;BME280;60991;51.278;22.550;2024-03-25T07:07:29;97847.31;;;5.27;70.21
72855;BME280;60991;51.278;22.550;2024-03-25T07:08:59;97846.03;;;5.29;69.85
72855;BME280;60991;51.278;22.550;2024-03-25T07:10:30;97848.44;;;5.31;70.24
72855;BME280;60991;51.278;22.550;2024-03-25T07:12:00;97846.72;;;5.41;70.59
72855;BME280;60991;51.278;22.550;2024-03-25T07:13:30;97847.69;;;5.52;70.17
72855;BME280;60991;51.278;22.550;2024-03-25T07:15:00;97847.25;;;5.60;69.92
72855;BME280;60991;51.278;22.550;2024-03-25T07:16:30;97845.50;;;5.66;70.06
72855;BME280;60991;51.278;22.550;2024-03-25T07:18:01;97847.41;;;5.70;69.88
72855;BME280;60991;51.278;22.550;2024-03-25T07:19:31;97850.41;;;5.79;69.72
72855;BME280;60991;51.278;22.550;2024-03-25T07:21:01;97856.28;;;5.86;69.06
72855;BME280;60991;51.278;22.550;2024-03-25T07:22:31;97854.00;;;5.89;69.08
72855;BME280;60991;51.278;22.550;2024-03-25T07:24:01;97850.59;;;5.94;68.99
72855;BME280;60991;51.278;22.550;2024-03-25T07:25:32;97843.34;;;6.01;68.62
72855;BME280;60991;51.278;22.550;2024-03-25T07:27:02;97852.66;;;6.09;68.96
72855;BME280;60991;51.278;22.550;2024-03-25T07:28:32;97848.97;;;6.10;68.69
72855;BME280;60991;51.278;22.550;2024-03-25T07:30:03;97846.13;;;6.16;68.60
72855;BME280;60991;51.278;22.550;2024-03-25T07:31:33;97853.31;;;6.21;68.42
72855;BME280;60991;51.278;22.550;2024-03-25T07:33:04;97857.84;;;6.25;68.66
72855;BME280;60991;51.278;22.550;2024-03-25T07:34:34;97857.06;;;6.25;68.19
72855;BME280;60991;51.278;22.550;2024-03-25T07:36:04;97858.34;;;6.22;68.15
72855;BME280;60991;51.278;22.550;2024-03-25T07:37:35;97857.22;;;6.18;68.66
72855;BME280;60991;51.278;22.550;2024-03-25T07:39:05;97860.06;;;6.12;68.68
72855;BME280;60991;51.278;22.550;2024-03-25T07:40:36;97861.38;;;6.14;68.65
72855;BME280;60991;51.278;22.550;2024-03-25T07:42:06;97862.56;;;6.23;69.37
72855;BME280;60991;51.278;22.550;2024-03-25T07:43:36;97859.22;;;6.33;69.40
72855;BME280;60991;51.278;22.550;2024-03-25T07:45:07;97862.53;;;6.45;68.77
72855;BME280;60991;51.278;22.550;2024-03-25T07:46:37;97859.44;;;6.53;68.64
72855;BME280;60991;51.278;22.550;2024-03-25T07:48:07;97860.78;;;6.56;68.11
72855;BME280;60991;51.278;22.550;2024-03-25T07:49:38;97859.56;;;6.64;68.03
72855;BME280;60991;51.278;22.550;2024-03-25T07:51:08;97861.00;;;6.76;67.68
72855;BME280;60991;51.278;22.550;2024-03-25T07:52:38;97861.59;;;6.83;67.11
72855;BME280;60991;51.278;22.550;2024-03-25T07:54:10;97861.38;;;6.90;66.19
72855;BME280;60991;51.278;22.550;2024-03-25T07:55:40;97860.06;;;6.92;66.55
72855;BME280;60991;51.278;22.550;2024-03-25T07:57:10;97864.13;;;7.00;66.22
72855;BME280;60991;51.278;22.550;2024-03-25T07:58:41;97860.13;;;6.98;65.04